createdAt,value
2017-09-14T00:01:07.693Z,0
2017-09-14T00:02:17.933Z,0
2017-09-14T00:03:27.879Z,0
2017-09-14T00:04:37.825Z,0
2017-09-14T00:05:48.084Z,0
2017-09-14T00:06:58.328Z,0
2017-09-14T00:08:08.519Z,0
2017-09-14T00:09:18.772Z,0
2017-09-14T00:10:28.713Z,0
2017-09-14T00:11:38.963Z,0
2017-09-14T00:12:49.215Z,0
2017-09-14T00:13:59.717Z,0
2017-09-14T00:15:09.651Z,0
2017-09-14T00:16:19.902Z,0
2017-09-14T00:17:30.153Z,0
2017-09-14T00:18:40.411Z,0
2017-09-14T00:19:50.982Z,0
2017-09-14T00:21:01.243Z,0
2017-09-14T00:22:11.488Z,0
2017-09-14T00:23:21.739Z,0
2017-09-14T00:24:32.023Z,0
2017-09-14T00:25:42.525Z,0
2017-09-14T00:26:52.782Z,0
2017-09-14T00:28:03.043Z,0
2017-09-14T00:29:12.977Z,0
2017-09-14T00:30:23.231Z,0
2017-09-14T00:31:33.740Z,0
2017-09-14T00:32:43.672Z,0
2017-09-14T00:33:53.610Z,0
2017-09-14T00:35:03.551Z,0
2017-09-14T00:36:13.804Z,0
2017-09-14T00:37:24.007Z,0
2017-09-14T00:38:33.638Z,0
2017-09-14T00:39:43.894Z,0
2017-09-14T00:40:54.148Z,0
2017-09-14T00:42:04.402Z,0
2017-09-14T00:43:14.903Z,0
2017-09-14T00:44:25.151Z,0
2017-09-14T00:45:35.083Z,0
2017-09-14T00:46:45.337Z,0
2017-09-14T00:47:55.587Z,0
2017-09-14T00:49:06.091Z,0
2017-09-14T00:50:16.032Z,0
2017-09-14T00:51:26.324Z,0
2017-09-14T00:52:35.953Z,0
2017-09-14T00:53:46.207Z,0
2017-09-14T00:54:56.724Z,0
2017-09-14T00:56:06.982Z,0
2017-09-14T00:57:16.919Z,0
2017-09-14T00:58:26.852Z,0
2017-09-14T00:59:36.475Z,0
2017-09-14T01:00:46.986Z,0
2017-09-14T01:01:57.234Z,0
2017-09-14T01:03:07.501Z,0
2017-09-14T01:04:17.756Z,0
2017-09-14T01:05:27.698Z,0
2017-09-14T01:06:38.198Z,0
2017-09-14T01:07:48.135Z,0
2017-09-14T01:08:58.067Z,0
2017-09-14T01:10:08.319Z,0
2017-09-14T01:11:18.252Z,0
2017-09-14T01:12:28.755Z,0
2017-09-14T01:13:38.691Z,0
2017-09-14T01:14:48.620Z,0
2017-09-14T01:15:58.877Z,0
2017-09-14T01:17:09.120Z,0
2017-09-14T01:18:19.642Z,0
2017-09-14T01:19:29.568Z,0
2017-09-14T01:20:39.505Z,0
2017-09-14T01:21:49.747Z,0
2017-09-14T01:22:59.999Z,0
2017-09-14T01:24:10.511Z,0
2017-09-14T01:25:20.465Z,0
2017-09-14T01:26:30.408Z,0
2017-09-14T01:27:40.652Z,0
2017-09-14T01:28:50.272Z,0
2017-09-14T01:30:00.446Z,0
2017-09-14T01:31:10.729Z,0
2017-09-14T01:32:20.981Z,0
2017-09-14T01:33:31.235Z,0
2017-09-14T01:34:41.182Z,0
2017-09-14T01:35:51.687Z,0
2017-09-14T01:37:01.939Z,0
2017-09-14T01:38:12.193Z,0
2017-09-14T01:39:22.452Z,0
2017-09-14T01:40:32.709Z,0
2017-09-14T01:41:43.216Z,0
2017-09-14T01:42:53.465Z,0
2017-09-14T01:44:03.715Z,0
2017-09-14T01:45:13.966Z,0
2017-09-14T01:46:24.221Z,0
2017-09-14T01:47:34.747Z,0
2017-09-14T01:48:44.680Z,0
2017-09-14T01:49:54.937Z,0
2017-09-14T01:51:05.198Z,0
2017-09-14T01:52:15.454Z,0
2017-09-14T01:53:25.955Z,0
2017-09-14T01:54:35.894Z,0
2017-09-14T01:55:46.140Z,0
2017-09-14T01:56:56.393Z,0
2017-09-14T01:58:06.637Z,0
2017-09-14T01:59:16.505Z,0
2017-09-14T02:00:26.759Z,0
2017-09-14T02:01:37.015Z,0
2017-09-14T02:02:46.949Z,0
2017-09-14T02:03:56.898Z,0
2017-09-14T02:05:07.091Z,0
2017-09-14T02:06:17.354Z,0
2017-09-14T02:07:26.971Z,0
2017-09-14T02:08:37.225Z,0
2017-09-14T02:09:47.475Z,0
2017-09-14T02:10:57.972Z,0
2017-09-14T02:12:07.905Z,0
2017-09-14T02:13:17.847Z,0
2017-09-14T02:14:28.118Z,0
2017-09-14T02:15:38.385Z,0
2017-09-14T02:16:48.883Z,0
2017-09-14T02:17:59.124Z,0
2017-09-14T02:19:09.371Z,0
2017-09-14T02:20:19.307Z,0
2017-09-14T02:21:29.251Z,0
2017-09-14T02:22:39.753Z,0
2017-09-14T02:23:50.002Z,0
2017-09-14T02:24:59.930Z,0
2017-09-14T02:26:09.870Z,0
2017-09-14T02:27:19.807Z,0
2017-09-14T02:28:30.434Z,0
2017-09-14T02:29:40.435Z,0
2017-09-14T02:30:50.419Z,0
2017-09-14T02:32:00.371Z,0
2017-09-14T02:33:10.634Z,0
2017-09-14T02:34:21.136Z,0
2017-09-14T02:35:31.400Z,0
2017-09-14T02:36:41.340Z,0
2017-09-14T02:37:51.586Z,0
2017-09-14T02:39:01.854Z,0
2017-09-14T02:40:12.365Z,0
2017-09-14T02:41:22.621Z,0
2017-09-14T02:42:32.905Z,0
2017-09-14T02:43:43.154Z,0
2017-09-14T02:44:53.400Z,0
2017-09-14T02:46:03.902Z,0
2017-09-14T02:47:14.158Z,0
2017-09-14T02:48:24.091Z,0
2017-09-14T02:49:34.046Z,0
2017-09-14T02:50:44.305Z,0
2017-09-14T02:51:54.847Z,0
2017-09-14T02:53:05.097Z,0
2017-09-14T02:54:15.361Z,0
2017-09-14T02:55:25.310Z,0
2017-09-14T02:56:35.245Z,0
2017-09-14T02:57:45.431Z,0
2017-09-14T02:58:55.373Z,0
2017-09-14T03:00:05.007Z,0
2017-09-14T03:01:14.954Z,0
2017-09-14T03:02:25.200Z,0
2017-09-14T03:03:35.712Z,0
2017-09-14T03:04:45.639Z,0
2017-09-14T03:05:55.258Z,0
2017-09-14T03:07:05.181Z,0
2017-09-14T03:08:15.123Z,0
2017-09-14T03:09:25.320Z,0
2017-09-14T03:10:35.565Z,0
2017-09-14T03:11:45.501Z,0
2017-09-14T03:12:55.750Z,0
2017-09-14T03:14:06.005Z,0
2017-09-14T03:15:16.509Z,0
2017-09-14T03:16:26.761Z,0
2017-09-14T03:17:36.697Z,0
2017-09-14T03:18:46.628Z,0
2017-09-14T03:19:56.565Z,0
2017-09-14T03:21:07.079Z,0
2017-09-14T03:22:17.022Z,0
2017-09-14T03:23:26.952Z,0
2017-09-14T03:24:37.199Z,0
2017-09-14T03:25:47.453Z,0
2017-09-14T03:26:57.952Z,0
2017-09-14T03:28:08.701Z,0
2017-09-14T03:29:18.946Z,0
2017-09-14T03:30:28.881Z,0
2017-09-14T03:31:38.821Z,0
2017-09-14T03:32:49.008Z,0
2017-09-14T03:33:58.949Z,0
2017-09-14T03:35:09.200Z,0
2017-09-14T03:36:19.463Z,0
2017-09-14T03:37:29.707Z,0
2017-09-14T03:38:40.212Z,0
2017-09-14T03:39:50.465Z,0
2017-09-14T03:41:00.497Z,0
2017-09-14T03:42:10.759Z,0
2017-09-14T03:43:20.379Z,0
2017-09-14T03:44:30.882Z,0
2017-09-14T03:45:40.817Z,0
2017-09-14T03:46:51.069Z,0
2017-09-14T03:48:01.319Z,0
2017-09-14T03:49:10.938Z,0
2017-09-14T03:50:21.117Z,0
2017-09-14T03:51:30.748Z,0
2017-09-14T03:52:40.701Z,0
2017-09-14T03:53:50.949Z,0
2017-09-14T03:55:01.249Z,0
2017-09-14T03:56:11.757Z,0
2017-09-14T03:57:22.024Z,0
2017-09-14T03:58:32.280Z,0
2017-09-14T03:59:42.212Z,0
2017-09-14T04:00:52.467Z,0
2017-09-14T04:02:02.664Z,0
2017-09-14T04:03:12.919Z,0
2017-09-14T04:04:23.178Z,0
2017-09-14T04:05:33.435Z,4
2017-09-14T04:06:43.684Z,4
2017-09-14T04:07:54.250Z,0
2017-09-14T04:09:04.549Z,4
2017-09-14T04:10:14.796Z,4
2017-09-14T04:11:24.427Z,4
2017-09-14T04:12:34.680Z,8
2017-09-14T04:13:45.181Z,8
2017-09-14T04:14:55.114Z,8
2017-09-14T04:16:04.730Z,12
2017-09-14T04:17:14.974Z,12
2017-09-14T04:18:25.233Z,12
2017-09-14T04:19:35.730Z,16
2017-09-14T04:20:45.343Z,20
2017-09-14T04:21:55.596Z,28
2017-09-14T04:23:05.855Z,32
2017-09-14T04:24:15.789Z,36
2017-09-14T04:25:26.298Z,36
2017-09-14T04:26:36.574Z,40
2017-09-14T04:27:46.817Z,40
2017-09-14T04:28:57.067Z,48
2017-09-14T04:30:07.342Z,44
2017-09-14T04:31:17.529Z,48
2017-09-14T04:32:27.150Z,52
2017-09-14T04:33:37.400Z,56
2017-09-14T04:34:47.649Z,64
2017-09-14T04:35:57.593Z,68
2017-09-14T04:37:07.778Z,76
2017-09-14T04:38:18.030Z,84
2017-09-14T04:39:28.281Z,92
2017-09-14T04:40:38.523Z,92
2017-09-14T04:41:48.149Z,80
2017-09-14T04:42:58.644Z,76
2017-09-14T04:44:08.585Z,84
2017-09-14T04:45:18.850Z,100
2017-09-14T04:46:28.785Z,116
2017-09-14T04:47:38.739Z,136
2017-09-14T04:48:48.936Z,172
2017-09-14T04:49:59.185Z,208
2017-09-14T04:51:09.435Z,244
2017-09-14T04:52:19.371Z,292
2017-09-14T04:53:29.629Z,348
2017-09-14T04:54:40.147Z,376
2017-09-14T04:55:50.416Z,436
2017-09-14T04:57:00.703Z,504
2017-09-14T04:58:11.016Z,512
2017-09-14T04:59:21.005Z,416
2017-09-14T05:00:31.510Z,296
2017-09-14T05:01:41.751Z,304
2017-09-14T05:02:51.685Z,400
2017-09-14T05:04:01.615Z,496
2017-09-14T05:05:11.556Z,568
2017-09-14T05:06:22.058Z,608
2017-09-14T05:07:32.005Z,592
2017-09-14T05:08:41.946Z,544
2017-09-14T05:09:52.192Z,532
2017-09-14T05:11:02.454Z,504
2017-09-14T05:12:12.326Z,464
2017-09-14T05:13:22.571Z,432
2017-09-14T05:14:32.814Z,428
2017-09-14T05:15:42.761Z,472
2017-09-14T05:16:52.701Z,484
2017-09-14T05:18:03.208Z,464
2017-09-14T05:19:13.135Z,452
2017-09-14T05:20:23.380Z,516
2017-09-14T05:21:33.640Z,424
2017-09-14T05:22:43.266Z,400
2017-09-14T05:23:53.139Z,452
2017-09-14T05:25:03.378Z,596
2017-09-14T05:26:13.021Z,928
2017-09-14T05:27:22.638Z,1300
2017-09-14T05:28:32.891Z,1628
2017-09-14T05:29:43.387Z,1628
2017-09-14T05:30:53.021Z,1308
2017-09-14T05:32:03.292Z,1100
2017-09-14T05:33:13.229Z,1448
2017-09-14T05:34:23.483Z,1328
2017-09-14T05:35:33.990Z,856
2017-09-14T05:36:43.934Z,680
2017-09-14T05:37:53.870Z,792
2017-09-14T05:39:04.128Z,652
2017-09-14T05:40:14.071Z,588
2017-09-14T05:41:24.260Z,688
2017-09-14T05:42:34.203Z,708
2017-09-14T05:43:44.480Z,704
2017-09-14T05:44:54.734Z,704
2017-09-14T05:46:05.061Z,684
2017-09-14T05:47:14.937Z,612
2017-09-14T05:48:25.185Z,504
2017-09-14T05:49:35.442Z,676
2017-09-14T05:50:45.706Z,792
2017-09-14T05:51:55.644Z,1024
2017-09-14T05:53:05.834Z,1080
2017-09-14T05:54:16.091Z,1016
2017-09-14T05:55:26.361Z,1024
2017-09-14T05:56:36.630Z,996
2017-09-14T05:57:46.570Z,1316
2017-09-14T05:58:57.072Z,1524
2017-09-14T06:00:07.330Z,1552
2017-09-14T06:01:16.975Z,1948
2017-09-14T06:02:26.909Z,3176
2017-09-14T06:03:37.166Z,4508
2017-09-14T06:04:47.087Z,4920
2017-09-14T06:05:57.356Z,5980
2017-09-14T06:07:07.627Z,6308
2017-09-14T06:08:17.926Z,5616
2017-09-14T06:09:28.170Z,4600
2017-09-14T06:10:38.687Z,3888
2017-09-14T06:11:48.947Z,3656
2017-09-14T06:12:58.886Z,3656
2017-09-14T06:14:09.137Z,3700
2017-09-14T06:15:19.389Z,3560
2017-09-14T06:16:29.897Z,3460
2017-09-14T06:17:40.139Z,3260
2017-09-14T06:18:50.077Z,2804
2017-09-14T06:20:00.323Z,3088
2017-09-14T06:21:10.270Z,3896
2017-09-14T06:22:20.458Z,4212
2017-09-14T06:23:30.722Z,4408
2017-09-14T06:24:40.675Z,6744
2017-09-14T06:25:50.932Z,7468
2017-09-14T06:27:01.191Z,7516
2017-09-14T06:28:11.702Z,6988
2017-09-14T06:29:21.971Z,6644
2017-09-14T06:30:32.226Z,7656
2017-09-14T06:31:42.478Z,9224
2017-09-14T06:32:52.414Z,9020
2017-09-14T06:34:02.937Z,8432
2017-09-14T06:35:13.200Z,7880
2017-09-14T06:36:23.452Z,7356
2017-09-14T06:37:33.722Z,7096
2017-09-14T06:38:43.996Z,6832
2017-09-14T06:39:54.491Z,6308
2017-09-14T06:41:04.449Z,5796
2017-09-14T06:42:14.729Z,5408
2017-09-14T06:43:25.022Z,5268
2017-09-14T06:44:34.958Z,5284
2017-09-14T06:45:45.568Z,5632
2017-09-14T06:46:55.858Z,6100
2017-09-14T06:48:05.827Z,6144
2017-09-14T06:49:15.769Z,6264
2017-09-14T06:50:25.892Z,7684
2017-09-14T06:51:36.194Z,9368
2017-09-14T06:52:46.492Z,10264
2017-09-14T06:53:56.792Z,10548
2017-09-14T06:55:07.092Z,11028
2017-09-14T06:56:17.359Z,10776
2017-09-14T06:57:27.557Z,9412
2017-09-14T06:58:37.566Z,8504
2017-09-14T06:59:47.882Z,10164
2017-09-14T07:00:58.193Z,12268
2017-09-14T07:02:08.691Z,14092
2017-09-14T07:03:19.211Z,13900
2017-09-14T07:04:29.518Z,12812
2017-09-14T07:05:39.788Z,11744
2017-09-14T07:06:50.091Z,11532
2017-09-14T07:08:00.390Z,12148
2017-09-14T07:09:10.917Z,13248
2017-09-14T07:10:20.896Z,14748
2017-09-14T07:11:30.840Z,16360
2017-09-14T07:12:40.785Z,17696
2017-09-14T07:13:51.033Z,17952
2017-09-14T07:15:01.570Z,17024
2017-09-14T07:16:11.527Z,14824
2017-09-14T07:17:21.806Z,12608
2017-09-14T07:18:31.752Z,11280
2017-09-14T07:19:42.010Z,10136
2017-09-14T07:20:52.626Z,8868
2017-09-14T07:22:02.918Z,8068
2017-09-14T07:23:13.242Z,7996
2017-09-14T07:24:23.753Z,8748
2017-09-14T07:25:33.399Z,9260
2017-09-14T07:26:43.912Z,9300
2017-09-14T07:27:54.195Z,9904
2017-09-14T07:29:04.472Z,10988
2017-09-14T07:30:14.455Z,12036
2017-09-14T07:31:24.737Z,13480
2017-09-14T07:32:35.256Z,15020
2017-09-14T07:33:45.542Z,15556
2017-09-14T07:34:55.507Z,15004
2017-09-14T07:36:05.473Z,14180
2017-09-14T07:37:15.112Z,13648
2017-09-14T07:38:25.614Z,14876
2017-09-14T07:39:35.253Z,16412
2017-09-14T07:40:45.209Z,16564
2017-09-14T07:41:55.157Z,16768
2017-09-14T07:43:05.424Z,17792
2017-09-14T07:44:15.953Z,18080
2017-09-14T07:45:26.238Z,18208
2017-09-14T07:46:36.498Z,18720
2017-09-14T07:47:46.771Z,18592
2017-09-14T07:48:57.040Z,17600
2017-09-14T07:50:07.334Z,16676
2017-09-14T07:51:17.597Z,16204
2017-09-14T07:52:27.538Z,16168
2017-09-14T07:53:37.793Z,16620
2017-09-14T07:54:48.070Z,17792
2017-09-14T07:55:58.654Z,17600
2017-09-14T07:57:08.902Z,16388
2017-09-14T07:58:19.198Z,15432
2017-09-14T07:59:29.489Z,14824
2017-09-14T08:00:39.765Z,14780
2017-09-14T08:01:50.296Z,15640
2017-09-14T08:03:00.590Z,17216
2017-09-14T08:04:10.854Z,18912
2017-09-14T08:05:20.801Z,20352
2017-09-14T08:06:31.099Z,21184
2017-09-14T08:07:41.622Z,20960
2017-09-14T08:08:52.130Z,19936
2017-09-14T08:10:02.396Z,18464
2017-09-14T08:11:12.665Z,18432
2017-09-14T08:12:22.925Z,18912
2017-09-14T08:13:33.445Z,18560
2017-09-14T08:14:43.416Z,17600
2017-09-14T08:15:53.038Z,18208
2017-09-14T08:17:03.300Z,18784
2017-09-14T08:18:13.575Z,18528
2017-09-14T08:19:24.099Z,18016
2017-09-14T08:20:34.071Z,17792
2017-09-14T08:21:44.378Z,18080
2017-09-14T08:22:54.656Z,17248
2017-09-14T08:24:04.663Z,17312
2017-09-14T08:25:15.192Z,16520
2017-09-14T08:26:25.500Z,15040
2017-09-14T08:27:35.471Z,15568
2017-09-14T08:28:45.754Z,17376
2017-09-14T08:29:55.711Z,18112
2017-09-14T08:31:05.914Z,20320
2017-09-14T08:32:16.170Z,20480
2017-09-14T08:33:26.429Z,20352
2017-09-14T08:34:36.691Z,19456
2017-09-14T08:35:46.990Z,19744
2017-09-14T08:36:57.489Z,21344
2017-09-14T08:38:07.767Z,22432
2017-09-14T08:39:18.028Z,23968
2017-09-14T08:40:28.294Z,25472
2017-09-14T08:41:38.558Z,25792
2017-09-14T08:42:48.117Z,28288
2017-09-14T08:43:58.349Z,27552
2017-09-14T08:45:08.297Z,24832
2017-09-14T08:46:18.556Z,24928
2017-09-14T08:47:28.824Z,26144
2017-09-14T08:48:39.328Z,23616
2017-09-14T08:49:49.287Z,23552
2017-09-14T08:50:59.811Z,23520
2017-09-14T08:52:10.082Z,22976
2017-09-14T08:53:20.339Z,21248
2017-09-14T08:54:30.900Z,17984
2017-09-14T08:55:40.287Z,14952
2017-09-14T08:56:50.561Z,18432
2017-09-14T08:58:00.824Z,17920
2017-09-14T08:59:11.071Z,15852
2017-09-14T09:00:21.659Z,15436
2017-09-14T09:01:31.638Z,15940
2017-09-14T09:02:41.969Z,16832
2017-09-14T09:03:51.975Z,16880
2017-09-14T09:05:02.239Z,18400
2017-09-14T09:06:12.816Z,20288
2017-09-14T09:07:22.775Z,20128
2017-09-14T09:08:32.400Z,18592
2017-09-14T09:09:42.670Z,20160
2017-09-14T09:10:52.966Z,20384
2017-09-14T09:12:03.483Z,18720
2017-09-14T09:13:13.978Z,18688
2017-09-14T09:14:24.250Z,17856
2017-09-14T09:15:34.552Z,14128
2017-09-14T09:16:44.841Z,13048
2017-09-14T09:17:55.122Z,12084
2017-09-14T09:19:05.391Z,12492
2017-09-14T09:20:15.665Z,12352
2017-09-14T09:21:25.331Z,11384
2017-09-14T09:22:35.273Z,11420
2017-09-14T09:23:45.814Z,12584
2017-09-14T09:24:56.120Z,11504
2017-09-14T09:26:06.419Z,11208
2017-09-14T09:27:16.413Z,11332
2017-09-14T09:28:26.384Z,12016
2017-09-14T09:29:36.938Z,11632
2017-09-14T09:30:47.215Z,10136
2017-09-14T09:31:57.166Z,9732
2017-09-14T09:33:07.433Z,9204
2017-09-14T09:34:17.420Z,12256
2017-09-14T09:35:27.617Z,16312
2017-09-14T09:36:37.585Z,19840
2017-09-14T09:37:47.870Z,24448
2017-09-14T09:38:57.538Z,24224
2017-09-14T09:40:07.835Z,18240
2017-09-14T09:41:18.370Z,15700
2017-09-14T09:42:28.940Z,17472
2017-09-14T09:43:38.911Z,18624
2017-09-14T09:44:49.225Z,17312
2017-09-14T09:45:59.525Z,16532
2017-09-14T09:47:10.044Z,15824
2017-09-14T09:48:20.300Z,14540
2017-09-14T09:49:30.251Z,13440
2017-09-14T09:50:40.280Z,13016
2017-09-14T09:51:50.632Z,12780
2017-09-14T09:53:01.171Z,13432
2017-09-14T09:54:11.450Z,13232
2017-09-14T09:55:21.749Z,13064
2017-09-14T09:56:32.003Z,14148
2017-09-14T09:57:41.948Z,14416
2017-09-14T09:58:52.191Z,14072
2017-09-14T10:00:02.144Z,12264
2017-09-14T10:01:12.107Z,11432
2017-09-14T10:02:21.751Z,12460
2017-09-14T10:03:31.724Z,11744
2017-09-14T10:04:41.914Z,11092
2017-09-14T10:05:52.180Z,11356
2017-09-14T10:07:02.460Z,11692
2017-09-14T10:08:12.731Z,11544
2017-09-14T10:09:22.988Z,12940
2017-09-14T10:10:33.510Z,12616
2017-09-14T10:11:43.789Z,13084
2017-09-14T10:12:54.046Z,13692
2017-09-14T10:14:04.388Z,13780
2017-09-14T10:15:14.336Z,13168
2017-09-14T10:16:24.858Z,13488
2017-09-14T10:17:35.108Z,13668
2017-09-14T10:18:45.366Z,13184
2017-09-14T10:19:55.308Z,12260
2017-09-14T10:21:05.565Z,11176
2017-09-14T10:22:15.778Z,10064
2017-09-14T10:23:25.735Z,10292
2017-09-14T10:24:36.034Z,10116
2017-09-14T10:25:46.333Z,10068
2017-09-14T10:26:56.646Z,12584
2017-09-14T10:28:06.880Z,14036
2017-09-14T10:29:16.854Z,13856
2017-09-14T10:30:26.805Z,13580
2017-09-14T10:31:36.444Z,14036
2017-09-14T10:32:46.400Z,14132
2017-09-14T10:33:56.581Z,12500
2017-09-14T10:35:06.865Z,10060
2017-09-14T10:36:17.123Z,9616
2017-09-14T10:37:27.429Z,10832
2017-09-14T10:38:37.690Z,12812
2017-09-14T10:39:48.211Z,13148
2017-09-14T10:40:57.833Z,13564
2017-09-14T10:42:07.771Z,12172
2017-09-14T10:43:18.036Z,9968
2017-09-14T10:44:27.980Z,9816
2017-09-14T10:45:38.505Z,11544
2017-09-14T10:46:48.489Z,11936
2017-09-14T10:47:57.801Z,15444
2017-09-14T10:49:07.736Z,19136
2017-09-14T10:50:18.001Z,18560
2017-09-14T10:51:28.559Z,14636
2017-09-14T10:52:38.514Z,13480
2017-09-14T10:53:48.789Z,11636
2017-09-14T10:54:59.045Z,8644
2017-09-14T10:56:08.997Z,7128
2017-09-14T10:57:19.519Z,6172
2017-09-14T10:58:29.484Z,6932
2017-09-14T10:59:39.759Z,7504
2017-09-14T11:00:50.029Z,7936
2017-09-14T11:02:00.289Z,9108
2017-09-14T11:03:10.171Z,9904
2017-09-14T11:04:20.437Z,8876
2017-09-14T11:05:30.379Z,8404
2017-09-14T11:06:40.648Z,8212
2017-09-14T11:07:50.905Z,7204
2017-09-14T11:09:01.095Z,7572
2017-09-14T11:10:11.034Z,8160
2017-09-14T11:11:21.300Z,8336
2017-09-14T11:12:31.557Z,11260
2017-09-14T11:13:41.816Z,11104
2017-09-14T11:14:52.318Z,13184
2017-09-14T11:16:02.258Z,17664
2017-09-14T11:17:12.195Z,17008
2017-09-14T11:18:21.505Z,24256
2017-09-14T11:19:31.449Z,18208
2017-09-14T11:20:41.643Z,13848
2017-09-14T11:21:51.587Z,10492
2017-09-14T11:23:01.888Z,9500
2017-09-14T11:24:11.840Z,10304
2017-09-14T11:25:22.126Z,9804
2017-09-14T11:26:32.630Z,8936
2017-09-14T11:27:42.593Z,8952
2017-09-14T11:28:52.534Z,9584
2017-09-14T11:30:02.820Z,11376
2017-09-14T11:31:12.753Z,13740
2017-09-14T11:32:22.634Z,13544
2017-09-14T11:33:32.585Z,13196
2017-09-14T11:34:42.849Z,14412
2017-09-14T11:35:53.109Z,14792
2017-09-14T11:37:03.370Z,13108
2017-09-14T11:38:13.897Z,14784
2017-09-14T11:39:23.858Z,16444
2017-09-14T11:40:34.130Z,18432
2017-09-14T11:41:43.770Z,19968
2017-09-14T11:42:53.395Z,18688
2017-09-14T11:44:03.619Z,17440
2017-09-14T11:45:13.217Z,17856
2017-09-14T11:46:23.488Z,19648
2017-09-14T11:47:33.744Z,24416
2017-09-14T11:48:44.001Z,36352
2017-09-14T11:49:54.518Z,43584
2017-09-14T11:51:04.775Z,31232
2017-09-14T11:52:14.740Z,32672
2017-09-14T11:53:24.807Z,44864
2017-09-14T11:54:34.746Z,44288
2017-09-14T11:55:45.291Z,45664
2017-09-14T11:56:55.251Z,47552
2017-09-14T11:58:05.252Z,89472
2017-09-14T11:59:14.896Z,95840
2017-09-14T12:00:24.847Z,72000
2017-09-14T12:01:35.043Z,46176
2017-09-14T12:02:44.769Z,33984
2017-09-14T12:03:55.075Z,40064
2017-09-14T12:05:05.386Z,51040
2017-09-14T12:06:15.675Z,43264
2017-09-14T12:07:26.175Z,33120
2017-09-14T12:08:36.132Z,32640
2017-09-14T12:09:46.093Z,41664
2017-09-14T12:10:56.386Z,47424
2017-09-14T12:12:06.645Z,50752
2017-09-14T12:13:16.905Z,57376
2017-09-14T12:14:26.972Z,80832
2017-09-14T12:15:36.969Z,61408
2017-09-14T12:16:47.276Z,49600
2017-09-14T12:17:57.566Z,45344
2017-09-14T12:19:08.429Z,29632
2017-09-14T12:20:18.398Z,26720
2017-09-14T12:21:28.687Z,28960
2017-09-14T12:22:38.640Z,35840
2017-09-14T12:23:48.599Z,47968
2017-09-14T12:24:59.108Z,35520
2017-09-14T12:26:09.419Z,31616
2017-09-14T12:27:19.055Z,39744
2017-09-14T12:28:28.773Z,63808
2017-09-14T12:29:38.980Z,40448
2017-09-14T12:30:49.167Z,42592
2017-09-14T12:31:59.125Z,65632
2017-09-14T12:33:08.784Z,110144
2017-09-14T12:34:19.028Z,40448
2017-09-14T12:35:29.291Z,51008
2017-09-14T12:36:39.794Z,41248
2017-09-14T12:37:50.059Z,34304
2017-09-14T12:39:00.016Z,39264
2017-09-14T12:40:09.990Z,79968
2017-09-14T12:41:19.954Z,50016
2017-09-14T12:42:29.848Z,41216
2017-09-14T12:43:40.117Z,51168
2017-09-14T12:44:50.377Z,35424
2017-09-14T12:46:00.643Z,46016
2017-09-14T12:47:10.576Z,57632
2017-09-14T12:48:21.135Z,46240
2017-09-14T12:49:31.413Z,145408
2017-09-14T12:50:41.682Z,87264
2017-09-14T12:51:51.960Z,38400
2017-09-14T12:53:01.924Z,44352
2017-09-14T12:54:12.448Z,147584
2017-09-14T12:55:22.744Z,153888
2017-09-14T12:56:33.042Z,47616
2017-09-14T12:57:42.995Z,102784
2017-09-14T12:58:53.287Z,157536
2017-09-14T13:00:03.813Z,77824
2017-09-14T13:01:13.759Z,149056
2017-09-14T13:02:24.034Z,62464
2017-09-14T13:03:34.299Z,125376
2017-09-14T13:04:44.593Z,108544
2017-09-14T13:05:55.191Z,67552
2017-09-14T13:07:05.468Z,138304
2017-09-14T13:08:15.758Z,81696
2017-09-14T13:09:25.428Z,89952
2017-09-14T13:10:35.687Z,91296
2017-09-14T13:11:46.216Z,81568
2017-09-14T13:12:56.491Z,55328
2017-09-14T13:14:06.774Z,53504
2017-09-14T13:15:17.088Z,41824
2017-09-14T13:16:27.037Z,32768
2017-09-14T13:17:37.554Z,27392
2017-09-14T13:18:47.830Z,29760
2017-09-14T13:19:57.782Z,27872
2017-09-14T13:21:07.963Z,20512
2017-09-14T13:22:18.246Z,20000
2017-09-14T13:23:28.765Z,21184
2017-09-14T13:24:38.749Z,19488
2017-09-14T13:25:49.010Z,24864
2017-09-14T13:26:59.283Z,25152
2017-09-14T13:28:09.555Z,23744
2017-09-14T13:29:19.742Z,28576
2017-09-14T13:30:30.024Z,35040
2017-09-14T13:31:40.309Z,81152
2017-09-14T13:32:50.252Z,53600
2017-09-14T13:33:59.913Z,46048
2017-09-14T13:35:10.120Z,43936
2017-09-14T13:36:20.391Z,130336
2017-09-14T13:37:30.027Z,56992
2017-09-14T13:38:39.971Z,80320
2017-09-14T13:39:50.234Z,112160
2017-09-14T13:41:00.112Z,153824
2017-09-14T13:42:10.383Z,135936
2017-09-14T13:43:20.341Z,56704
2017-09-14T13:44:30.614Z,144384
2017-09-14T13:45:40.871Z,70720
2017-09-14T13:46:51.071Z,111680
2017-09-14T13:48:01.022Z,50464
2017-09-14T13:49:11.294Z,40096
2017-09-14T13:50:21.596Z,36704
2017-09-14T13:51:31.863Z,34400
2017-09-14T13:52:42.383Z,33152
2017-09-14T13:53:52.325Z,30912
2017-09-14T13:55:01.959Z,26240
2017-09-14T13:56:12.230Z,23296
2017-09-14T13:57:22.489Z,23840
2017-09-14T13:58:32.680Z,21984
2017-09-14T13:59:42.321Z,30720
2017-09-14T14:00:52.269Z,28352
2017-09-14T14:02:02.214Z,20192
2017-09-14T14:03:12.190Z,16292
2017-09-14T14:04:22.073Z,17536
2017-09-14T14:05:32.331Z,18304
2017-09-14T14:06:42.585Z,21120
2017-09-14T14:07:52.850Z,19392
2017-09-14T14:09:03.117Z,10188
2017-09-14T14:10:13.665Z,10896
2017-09-14T14:11:23.915Z,15176
2017-09-14T14:12:34.175Z,23424
2017-09-14T14:13:44.433Z,27552
2017-09-14T14:14:54.708Z,30752
2017-09-14T14:16:04.588Z,22624
2017-09-14T14:17:14.865Z,20992
2017-09-14T14:18:25.413Z,24864
2017-09-14T14:19:35.375Z,23520
2017-09-14T14:20:45.673Z,17356
2017-09-14T14:21:56.193Z,17696
2017-09-14T14:23:06.482Z,21184
2017-09-14T14:24:16.446Z,23744
2017-09-14T14:25:26.706Z,16376
2017-09-14T14:26:36.644Z,15796
2017-09-14T14:27:47.144Z,15664
2017-09-14T14:28:57.396Z,21888
2017-09-14T14:30:07.345Z,24448
2017-09-14T14:31:17.285Z,23008
2017-09-14T14:32:27.537Z,25920
2017-09-14T14:33:38.041Z,25216
2017-09-14T14:34:48.309Z,25312
2017-09-14T14:35:58.591Z,29248
2017-09-14T14:37:08.850Z,30560
2017-09-14T14:38:19.113Z,33568
2017-09-14T14:39:29.324Z,66816
2017-09-14T14:40:39.614Z,120992
2017-09-14T14:41:49.904Z,97248
2017-09-14T14:43:00.180Z,105216
2017-09-14T14:44:09.809Z,42336
2017-09-14T14:45:20.339Z,66016
2017-09-14T14:46:30.613Z,36832
2017-09-14T14:47:40.890Z,37152
2017-09-14T14:48:51.158Z,41664
2017-09-14T14:50:01.113Z,72320
2017-09-14T14:51:11.621Z,114528
2017-09-14T14:52:21.890Z,38336
2017-09-14T14:53:32.149Z,38432
2017-09-14T14:54:42.412Z,23680
2017-09-14T14:55:52.701Z,15304
2017-09-14T14:57:03.210Z,13244
2017-09-14T14:58:13.157Z,12968
2017-09-14T14:59:23.416Z,12748
2017-09-14T15:00:33.051Z,11020
2017-09-14T15:01:42.687Z,10428
2017-09-14T15:02:52.903Z,10960
2017-09-14T15:04:03.175Z,10700
2017-09-14T15:05:13.448Z,8240
2017-09-14T15:06:23.708Z,6844
2017-09-14T15:07:33.967Z,6872
2017-09-14T15:08:44.244Z,6816
2017-09-14T15:09:54.192Z,5136
2017-09-14T15:11:04.457Z,3656
2017-09-14T15:12:14.755Z,2580
2017-09-14T15:13:25.029Z,1632
2017-09-14T15:14:35.261Z,1316
2017-09-14T15:15:45.221Z,1784
2017-09-14T15:16:55.495Z,2808
2017-09-14T15:18:05.767Z,3432
2017-09-14T15:19:15.716Z,4184
2017-09-14T15:20:26.236Z,4880
2017-09-14T15:21:36.484Z,7152
2017-09-14T15:22:46.765Z,7984
2017-09-14T15:23:57.038Z,9884
2017-09-14T15:25:07.324Z,12432
2017-09-14T15:26:17.572Z,13684
2017-09-14T15:27:27.837Z,13672
2017-09-14T15:28:37.472Z,13244
2017-09-14T15:29:47.432Z,12652
2017-09-14T15:30:57.388Z,11544
2017-09-14T15:32:07.960Z,10400
2017-09-14T15:33:18.229Z,9940
2017-09-14T15:34:28.490Z,10184
2017-09-14T15:35:38.438Z,12156
2017-09-14T15:36:48.716Z,26400
2017-09-14T15:37:59.228Z,50912
2017-09-14T15:39:09.498Z,59200
2017-09-14T15:40:19.776Z,76544
2017-09-14T15:41:29.751Z,88608
2017-09-14T15:42:40.046Z,72640
2017-09-14T15:43:50.573Z,72288
2017-09-14T15:45:00.536Z,69408
2017-09-14T15:46:10.489Z,65824
2017-09-14T15:47:20.769Z,63296